Time;durP1;ratioP1;P1;durP2;ratioP2;P2;SDS_P1;SDS_P2;PMS_P1;PMS_P2;Temp;Humidity;BMP_temperature;BMP_pressure;BME280_temperature;BME280_humidity;BME280_pressure;Samples;Min_cycle;Max_cycle;Signal;HPM_P1;HPM_P2
2022/12/12 00:01:01;;;;;;;44.30;27.20;;;;;;;-2.75;88.10;97526.13;86937;1284;99332;-74
2022/12/12 00:03:03;;;;;;;46.10;28.40;;;;;;;-2.75;87.99;97523.20;86888;1290;23821;-75
2022/12/12 00:05:06;;;;;;;45.80;26.70;;;;;;;-2.75;88.06;97523.71;86912;1287;23449;-75
2022/12/12 00:07:08;;;;;;;43.90;24.80;;;;;;;-2.74;87.98;97520.42;87004;1310;99956;-77
2022/12/12 00:09:10;;;;;;;52.30;27.50;;;;;;;-2.72;88.15;97517.30;86715;1290;22962;-76
2022/12/12 00:11:15;;;;;;;53.80;29.10;;;;;;;-2.71;88.04;97515.91;87009;1297;24257;-74
2022/12/12 00:13:19;;;;;;;49.10;28.00;;;;;;;-2.71;88.05;97516.77;86906;1312;98319;-75
2022/12/12 00:15:21;;;;;;;45.40;24.90;;;;;;;-2.71;88.21;97516.59;87099;1288;22504;-75
2022/12/12 00:17:23;;;;;;;51.10;26.60;;;;;;;-2.69;88.29;97515.52;87206;1303;100089;-75
2022/12/12 00:19:24;;;;;;;54.80;30.30;;;;;;;-2.68;88.20;97514.13;87324;1288;24545;-76
2022/12/12 00:21:28;;;;;;;51.30;29.30;;;;;;;-2.68;88.05;97511.55;87195;1288;25412;-75
2022/12/12 00:23:33;;;;;;;53.70;30.00;;;;;;;-2.68;88.06;97511.89;87033;1290;98738;-75
2022/12/12 00:25:35;;;;;;;44.70;26.90;;;;;;;-2.69;88.12;97510.86;87227;1288;22533;-75
2022/12/12 00:27:38;;;;;;;53.90;29.80;;;;;;;-2.70;88.08;97509.36;86931;1280;23042;-74
2022/12/12 00:29:40;;;;;;;55.40;30.40;;;;;;;-2.72;87.97;97509.57;86777;1297;101737;-75
2022/12/12 00:31:41;;;;;;;57.40;32.60;;;;;;;-2.74;88.11;97507.54;87020;1287;22485;-76
2022/12/12 00:33:46;;;;;;;45.70;28.80;;;;;;;-2.74;87.95;97510.82;86884;1290;22543;-75
2022/12/12 00:35:53;;;;;;;55.00;30.80;;;;;;;-2.74;88.25;97512.35;86767;1290;100116;-75
2022/12/12 00:37:55;;;;;;;55.80;30.20;;;;;;;-2.72;88.10;97510.77;86907;1295;22655;-75
2022/12/12 00:39:57;;;;;;;50.50;29.20;;;;;;;-2.72;87.99;97511.27;86705;1297;23338;-75
2022/12/12 00:41:58;;;;;;;53.20;32.00;;;;;;;-2.71;88.10;97512.80;86682;1290;98343;-73
2022/12/12 00:44:00;;;;;;;54.20;31.70;;;;;;;-2.69;88.08;97510.02;86867;1295;22460;-75
2022/12/12 00:46:03;;;;;;;55.80;31.40;;;;;;;-2.68;88.17;97509.16;86932;1288;22572;-73
2022/12/12 00:48:06;;;;;;;50.40;30.10;;;;;;;-2.67;88.23;97510.66;86658;1294;99289;-75
2022/12/12 00:50:08;;;;;;;55.10;29.60;;;;;;;-2.66;88.23;97506.19;86926;1280;22504;-74
2022/12/12 00:52:10;;;;;;;50.70;30.90;;;;;;;-2.65;88.11;97505.83;86762;1288;22562;-74
2022/12/12 00:54:11;;;;;;;52.30;29.20;;;;;;;-2.65;88.07;97506.52;86579;1290;100289;-74
2022/12/12 00:56:18;;;;;;;51.40;29.10;;;;;;;-2.65;88.21;97504.27;86720;1293;22470;-75
2022/12/12 00:58:20;;;;;;;53.50;28.30;;;;;;;-2.64;88.10;97502.69;86864;1293;22524;-74
2022/12/12 01:00:22;;;;;;;51.30;28.10;;;;;;;-2.63;88.44;97505.77;86547;1291;98425;-75
2022/12/12 01:02:24;;;;;;;59.20;30.10;;;;;;;-2.64;88.25;97504.08;86893;1285;22460;-75
2022/12/12 01:04:26;;;;;;;51.70;29.00;;;;;;;-2.65;88.10;97505.29;86845;1284;22512;-74
2022/12/12 01:06:28;;;;;;;47.80;29.20;;;;;;;-2.64;88.22;97502.69;86877;1293;98363;-75
2022/12/12 01:08:29;;;;;;;56.90;29.50;;;;;;;-2.65;88.23;97499.80;86551;1290;23372;-75
2022/12/12 01:10:33;;;;;;;50.30;28.30;;;;;;;-2.65;88.25;97496.89;86767;1287;22682;-75
2022/12/12 01:12:35;;;;;;;50.20;28.80;;;;;;;-2.64;88.20;97494.97;86817;1281;98417;-75
2022/12/12 01:14:37;;;;;;;54.40;30.00;;;;;;;-2.65;88.22;97494.45;86664;1295;22654;-76
2022/12/12 01:16:39;;;;;;;53.70;29.70;;;;;;;-2.65;88.10;97491.89;86937;1287;22523;-75
2022/12/12 01:18:41;;;;;;;52.00;29.00;;;;;;;-2.65;88.27;97490.85;86670;1289;99831;-74
2022/12/12 01:20:43;;;;;;;59.40;31.60;;;;;;;-2.64;88.33;97492.04;86746;1280;23061;-74
2022/12/12 01:22:45;;;;;;;49.60;28.40;;;;;;;-2.63;88.19;97489.63;86741;1288;22458;-75
2022/12/12 01:24:47;;;;;;;58.80;31.20;;;;;;;-2.63;88.30;97490.13;86663;1287;98130;-74
2022/12/12 01:26:49;;;;;;;58.60;31.40;;;;;;;-2.64;88.37;97486.73;86626;1290;22539;-75
2022/12/12 01:28:51;;;;;;;54.00;29.60;;;;;;;-2.64;88.19;97487.73;86741;1288;22520;-75
2022/12/12 01:30:52;;;;;;;50.70;29.20;;;;;;;-2.65;88.17;97485.85;86655;1294;99342;-74
2022/12/12 01:32:55;;;;;;;52.50;27.70;;;;;;;-2.65;88.26;97487.77;86717;1280;25114;-75
2022/12/12 01:34:57;;;;;;;48.90;26.20;;;;;;;-2.69;88.13;97481.30;86660;1290;22518;-76
2022/12/12 01:36:59;;;;;;;54.70;27.80;;;;;;;-2.72;88.27;97476.73;86590;1289;99333;-74
2022/12/12 01:39:02;;;;;;;57.50;29.30;;;;;;;-2.71;88.21;97477.23;86603;1312;24216;-74
2022/12/12 01:41:03;;;;;;;54.00;29.50;;;;;;;-2.72;88.15;97475.02;87038;1279;22682;-74
2022/12/12 01:43:11;;;;;;;45.70;25.60;;;;;;;-2.74;88.21;97476.25;86585;1290;98398;-75
2022/12/12 01:45:50;;;;;;;55.60;29.00;;;;;;;-2.74;88.19;97477.13;86784;1288;22557;-76
2022/12/12 01:47:52;;;;;;;47.20;26.40;;;;;;;-2.77;88.18;97475.79;86909;1284;98684;-74
2022/12/12 01:50:08;;;;;;;49.80;28.20;;;;;;;-2.79;88.11;97478.39;86907;1288;24251;-75
2022/12/12 01:52:16;;;;;;;53.40;26.80;;;;;;;-2.78;88.12;97475.47;86746;1298;22582;-75
2022/12/12 01:54:32;;;;;;;47.90;27.00;;;;;;;-2.79;88.29;97474.63;86692;1294;99653;-73
2022/12/12 01:56:35;;;;;;;52.30;27.90;;;;;;;-2.77;88.11;97470.64;86993;1291;25958;-74
2022/12/12 01:58:39;;;;;;;57.60;29.10;;;;;;;-2.77;88.35;97469.08;86894;1285;23709;-74
2022/12/12 02:00:42;;;;;;;50.80;27.80;;;;;;;-2.77;88.24;97473.20;86852;1294;98621;-75
2022/12/12 02:02:45;;;;;;;50.60;27.90;;;;;;;-2.79;88.23;97469.30;86707;1284;22574;-75
2022/12/12 02:04:47;;;;;;;49.70;27.40;;;;;;;-2.76;88.38;97474.38;86747;1284;22938;-75
2022/12/12 02:06:51;;;;;;;49.80;27.00;;;;;;;-2.74;88.22;97475.39;86732;1283;99807;-75
2022/12/12 02:08:56;;;;;;;56.00;29.60;;;;;;;-2.74;88.27;97475.39;86849;1290;26659;-76
2022/12/12 02:10:58;;;;;;;47.60;28.10;;;;;;;-2.75;88.22;97475.41;86845;1288;22515;-74
2022/12/12 02:13:08;;;;;;;51.00;26.80;;;;;;;-2.76;88.13;97472.67;86898;1285;100316;-76
2022/12/12 02:15:11;;;;;;;41.70;26.00;;;;;;;-2.76;88.32;97467.52;87091;1296;22760;-76
2022/12/12 02:17:16;;;;;;;54.50;28.70;;;;;;;-2.76;88.08;97469.23;86849;1293;22915;-76
2022/12/12 02:22:54;;;;;;;51.40;28.90;;;;;;;-2.76;88.17;97474.57;87204;1277;22585;-75
2022/12/12 02:25:42;;;;;;;45.70;26.80;;;;;;;-2.78;88.23;97474.27;86920;1295;99830;-74
2022/12/12 02:28:03;;;;;;;46.40;25.80;;;;;;;-2.79;88.18;97474.98;87010;1287;22297;-75
2022/12/12 02:30:50;;;;;;;45.60;24.70;;;;;;;-2.80;88.30;97469.30;86851;1295;99186;-75
2022/12/12 02:33:10;;;;;;;47.10;25.10;;;;;;;-2.79;88.21;97470.49;87006;1287;22554;-74
2022/12/12 02:35:25;;;;;;;42.20;25.60;;;;;;;-2.93;88.17;97447.23;86983;1281;22427;-74
2022/12/12 02:38:31;;;;;;;43.50;24.20;;;;;;;-2.77;88.24;97473.21;87033;1286;99307;-75
2022/12/12 02:40:56;;;;;;;48.50;26.20;;;;;;;-2.79;88.32;97471.36;86626;1315;22592;-75
2022/12/12 02:43:10;;;;;;;48.70;26.70;;;;;;;-2.77;88.29;97475.95;86460;1294;98113;-73
2022/12/12 02:45:37;;;;;;;45.50;24.60;;;;;;;-2.77;88.38;97476.98;86403;1292;23757;-74
2022/12/12 02:47:49;;;;;;;42.30;24.20;;;;;;;-2.95;88.31;97448.29;86577;1286;23899;-74
2022/12/12 02:50:12;;;;;;;41.10;24.30;;;;;;;-2.76;88.17;97472.67;86472;1301;23049;-75
2022/12/12 02:52:16;;;;;;;44.10;25.70;;;;;;;-2.76;88.27;97471.64;86571;1297;23175;-75
2022/12/12 02:54:20;;;;;;;54.50;26.50;;;;;;;-2.75;88.42;97470.42;86419;1302;98275;-75
2022/12/12 02:56:40;;;;;;;42.00;25.10;;;;;;;-2.75;88.28;97469.40;86575;1287;26474;-75
2022/12/12 02:58:42;;;;;;;46.90;25.20;;;;;;;-2.77;88.27;97464.42;86574;1290;22771;-75
2022/12/12 03:01:17;;;;;;;38.10;23.60;;;;;;;-2.77;88.32;97465.98;86428;1300;98104;-74
2022/12/12 03:08:41;;;;;;;47.10;25.50;;;;;;;-2.76;88.27;97467.70;86472;1315;22617;-76
2022/12/12 03:10:58;;;;;;;43.30;24.40;;;;;;;-2.76;88.28;97467.69;86565;1287;22761;-75
2022/12/12 03:13:37;;;;;;;40.50;24.40;;;;;;;-2.76;88.34;97470.77;86796;1286;99231;-74
2022/12/12 03:16:18;;;;;;;39.00;23.20;;;;;;;-2.76;88.35;97466.48;87121;1284;22537;-75
2022/12/12 03:18:23;;;;;;;42.00;26.00;;;;;;;-2.74;88.28;97468.18;87085;1285;99183;-75
2022/12/12 03:20:36;;;;;;;44.00;25.30;;;;;;;-2.74;88.36;97469.72;87016;1293;22508;-74
2022/12/12 03:22:50;;;;;;;46.80;25.60;;;;;;;-2.73;88.29;97468.48;86864;1290;22482;-74
2022/12/12 03:24:58;;;;;;;44.30;24.50;;;;;;;-2.71;88.35;97468.97;86866;1289;98443;-75
2022/12/12 03:27:11;;;;;;;36.70;23.50;;;;;;;-2.75;88.20;97462.16;87192;1284;22576;-74
2022/12/12 03:29:18;;;;;;;39.50;23.60;;;;;;;-2.72;88.32;97463.49;87235;1285;22807;-74
2022/12/12 03:31:27;;;;;;;48.60;25.80;;;;;;;-2.72;88.12;97459.54;87171;1294;99658;-75
2022/12/12 03:33:49;;;;;;;39.30;23.20;;;;;;;-2.72;88.26;97462.46;87167;1292;22538;-74
2022/12/12 03:36:02;;;;;;;43.30;24.80;;;;;;;-2.80;88.37;97452.81;87049;1281;99431;-74
2022/12/12 03:38:11;;;;;;;40.70;25.70;;;;;;;-2.73;88.18;97462.14;87222;1281;22528;-74
2022/12/12 03:40:20;;;;;;;42.10;25.60;;;;;;;-2.74;88.23;97464.40;87180;1287;24302;-75
2022/12/12 03:42:37;;;;;;;48.80;26.00;;;;;;;-2.73;88.26;97466.08;86952;1295;98153;-75
2022/12/12 03:44:47;;;;;;;44.80;26.90;;;;;;;-2.72;88.21;97462.64;87137;1293;23391;-75
2022/12/12 03:47:12;;;;;;;39.50;23.40;;;;;;;-2.76;88.34;97454.29;87167;1288;22694;-75
2022/12/12 03:49:29;;;;;;;41.50;24.50;;;;;;;-2.71;88.27;97464.86;87130;1285;98249;-77
2022/12/12 03:51:37;;;;;;;44.60;24.70;;;;;;;-2.71;88.32;97466.55;87127;1284;22755;-75
2022/12/12 03:53:52;;;;;;;37.10;23.00;;;;;;;-2.71;88.32;97467.09;87045;1288;24716;-74
2022/12/12 03:56:10;;;;;;;43.10;24.50;;;;;;;-2.71;88.40;97463.31;87216;1284;22535;-75
2022/12/12 03:58:15;;;;;;;42.60;23.80;;;;;;;-2.73;88.22;97463.33;87088;1281;22551;-74
2022/12/12 04:00:17;;;;;;;40.20;22.30;;;;;;;-2.73;88.37;97466.77;87207;1284;99448;-76
2022/12/12 04:02:38;;;;;;;48.70;26.90;;;;;;;-2.74;88.21;97468.16;87004;1311;22516;-76
2022/12/12 04:04:59;;;;;;;39.90;23.10;;;;;;;-2.73;88.28;97468.48;87098;1304;22090;-75
2022/12/12 04:07:02;;;;;;;50.40;25.60;;;;;;;-2.74;88.23;97468.67;87392;1294;98184;-75
2022/12/12 04:14:33;;;;;;;43.40;24.20;;;;;;;-2.75;88.25;97467.16;87589;1291;24507;-75
2022/12/12 04:16:42;;;;;;;40.20;24.00;;;;;;;-2.76;88.22;97467.52;87546;1282;22716;-74
2022/12/12 04:18:56;;;;;;;37.10;23.90;;;;;;;-2.77;88.07;97462.73;86987;1294;98088;-74
2022/12/12 04:23:57;;;;;;;40.50;24.70;;;;;;;-2.79;88.23;97455.37;87278;1284;22492;-75
2022/12/12 04:28:31;;;;;;;42.30;24.80;;;;;;;-2.76;88.25;97459.96;87373;1278;25255;-75
2022/12/12 04:30:35;;;;;;;37.70;23.20;;;;;;;-2.78;88.06;97457.77;87199;1288;99174;-75
2022/12/12 04:32:40;;;;;;;45.20;24.60;;;;;;;-2.78;88.04;97462.21;87247;1310;22948;-75
2022/12/12 04:34:54;;;;;;;39.10;22.30;;;;;;;-2.77;88.13;97464.09;87246;1309;22481;-74
2022/12/12 04:36:58;;;;;;;36.30;21.40;;;;;;;-2.76;88.25;97464.25;87119;1281;98093;-76
2022/12/12 04:39:01;;;;;;;40.10;23.40;;;;;;;-2.78;88.17;97469.27;87025;1287;25260;-74
2022/12/12 04:41:06;;;;;;;41.40;23.40;;;;;;;-2.75;88.23;97470.60;87263;1286;22752;-75
2022/12/12 04:43:17;;;;;;;39.10;22.40;;;;;;;-2.74;88.22;97469.89;87132;1284;98209;-76
2022/12/12 04:45:23;;;;;;;40.70;23.70;;;;;;;-2.74;88.22;97474.02;87283;1288;22584;-74
2022/12/12 04:47:30;;;;;;;38.70;21.40;;;;;;;-2.75;88.08;97469.90;87151;1284;24204;-75
2022/12/12 04:49:34;;;;;;;35.30;23.20;;;;;;;-2.73;88.19;97477.26;87076;1293;100131;-76
2022/12/12 04:51:42;;;;;;;40.40;23.30;;;;;;;-2.73;88.30;97476.23;87069;1288;25122;-76
2022/12/12 04:53:49;;;;;;;35.50;21.90;;;;;;;-2.72;88.23;97476.03;87250;1287;25398;-75
2022/12/12 04:55:58;;;;;;;43.10;24.30;;;;;;;-2.71;88.18;97478.09;87129;1295;99669;-75
2022/12/12 04:58:01;;;;;;;34.60;20.50;;;;;;;-2.70;88.11;97476.52;87205;1295;22504;-75
2022/12/12 05:00:03;;;;;;;31.10;20.00;;;;;;;-2.71;88.12;97473.11;87006;1288;25347;-75
2022/12/12 05:02:35;;;;;;;37.30;21.40;;;;;;;-2.72;88.12;97473.45;86900;1281;98341;-75
2022/12/12 05:04:58;;;;;;;38.00;21.40;;;;;;;-2.70;88.16;97475.67;87120;1284;22489;-74
2022/12/12 05:07:08;;;;;;;39.00;21.70;;;;;;;-2.70;88.26;97478.08;87127;1283;98249;-76
2022/12/12 05:09:12;;;;;;;31.10;19.40;;;;;;;-2.72;88.20;97474.32;87057;1312;25468;-75
2022/12/12 05:11:17;;;;;;;36.90;20.60;;;;;;;-2.72;88.23;97478.11;87242;1294;22508;-75
2022/12/12 05:13:33;;;;;;;29.60;19.50;;;;;;;-2.73;88.13;97476.73;86995;1287;100176;-74
2022/12/12 05:15:34;;;;;;;34.00;21.40;;;;;;;-2.73;88.17;97478.46;87261;1278;23132;-75
2022/12/12 05:17:43;;;;;;;27.70;18.80;;;;;;;-2.75;88.19;97473.85;87167;1295;22799;-75
2022/12/12 05:19:46;;;;;;;34.90;21.60;;;;;;;-2.75;88.17;97474.38;87009;1294;98041;-76
2022/12/12 05:21:48;;;;;;;34.50;20.70;;;;;;;-2.75;88.03;97475.59;87014;1290;22540;-75
2022/12/12 05:23:49;;;;;;;34.10;20.20;;;;;;;-2.79;88.10;97468.77;87163;1294;22483;-75
2022/12/12 05:25:51;;;;;;;36.30;21.60;;;;;;;-2.75;88.23;97472.49;87035;1301;98873;-75
2022/12/12 05:27:53;;;;;;;32.70;19.80;;;;;;;-2.75;88.25;97474.02;86997;1294;23194;-75
2022/12/12 05:29:54;;;;;;;31.40;18.70;;;;;;;-2.74;88.08;97477.63;87222;1294;25369;-76
2022/12/12 05:31:56;;;;;;;32.60;21.10;;;;;;;-2.72;88.26;97478.27;86975;1287;99881;-75
2022/12/12 05:33:58;;;;;;;30.80;18.90;;;;;;;-2.71;88.20;97477.05;87281;1308;22515;-76
2022/12/12 05:36:00;;;;;;;36.10;20.60;;;;;;;-2.69;88.22;97478.23;87010;1287;22571;-77
2022/12/12 05:38:01;;;;;;;31.10;20.30;;;;;;;-2.68;88.19;97475.96;86994;1280;99247;-75
2022/12/12 05:40:07;;;;;;;39.00;21.10;;;;;;;-2.68;88.22;97478.20;87301;1284;22422;-76
2022/12/12 05:42:09;;;;;;;30.50;19.40;;;;;;;-2.68;88.22;97476.83;87109;1313;23962;-76
2022/12/12 05:44:11;;;;;;;34.20;21.70;;;;;;;-2.68;88.28;97477.16;87139;1284;98751;-75
2022/12/12 05:46:13;;;;;;;30.20;20.30;;;;;;;-2.68;88.15;97476.13;86986;1304;22496;-76
2022/12/12 05:48:15;;;;;;;38.40;20.70;;;;;;;-2.67;88.23;97478.00;87155;1280;98737;-77
2022/12/12 05:50:17;;;;;;;31.00;19.10;;;;;;;-2.67;88.14;97479.89;87088;1288;23039;-76
2022/12/12 05:52:19;;;;;;;36.10;21.70;;;;;;;-2.67;88.12;97482.83;87036;1288;23709;-77
2022/12/12 05:54:21;;;;;;;35.70;21.00;;;;;;;-2.67;88.11;97482.48;86965;1295;98991;-76
2022/12/12 05:56:22;;;;;;;33.30;19.50;;;;;;;-2.66;88.32;97486.05;87092;1280;22507;-76
2022/12/12 05:58:24;;;;;;;35.70;22.40;;;;;;;-2.65;88.27;97483.46;87011;1288;22499;-76
2022/12/12 06:00:26;;;;;;;40.00;21.80;;;;;;;-2.65;88.16;97487.77;86788;1296;100149;-75
2022/12/12 06:02:27;;;;;;;29.30;20.00;;;;;;;-2.64;88.15;97487.58;87060;1280;22488;-76
2022/12/12 06:04:32;;;;;;;40.90;24.40;;;;;;;-2.64;88.29;97488.77;86952;1286;22489;-76
2022/12/12 06:06:33;;;;;;;39.60;22.80;;;;;;;-2.64;88.18;97489.29;87038;1288;98386;-75
2022/12/12 06:08:37;;;;;;;38.50;23.40;;;;;;;-2.64;88.34;97492.55;87126;1293;22494;-76
2022/12/12 06:10:39;;;;;;;45.30;24.70;;;;;;;-2.62;88.21;97495.10;87085;1295;26011;-76
2022/12/12 06:12:41;;;;;;;41.00;24.60;;;;;;;-2.61;88.09;97497.98;87157;1284;99195;-76
2022/12/12 06:14:43;;;;;;;38.20;24.60;;;;;;;-2.61;88.20;97497.66;87140;1294;22533;-76
2022/12/12 06:16:44;;;;;;;37.10;22.10;;;;;;;-2.60;88.22;97503.31;86974;1287;22642;-76
2022/12/12 06:18:50;;;;;;;32.30;21.10;;;;;;;-2.60;88.14;97505.03;87045;1288;98110;-76
2022/12/12 06:21:05;;;;;;;36.40;22.60;;;;;;;-2.59;88.27;97510.51;87137;1288;22527;-76
2022/12/12 06:23:06;;;;;;;42.60;23.20;;;;;;;-2.58;88.26;97511.35;87072;1288;22492;-76
2022/12/12 06:25:09;;;;;;;39.20;23.30;;;;;;;-2.57;88.12;97515.11;87012;1293;98227;-75
2022/12/12 06:27:11;;;;;;;38.30;23.20;;;;;;;-2.56;88.25;97513.39;87016;1288;22591;-75
2022/12/12 06:29:14;;;;;;;36.90;23.60;;;;;;;-2.55;88.36;97514.41;87223;1293;22485;-76
2022/12/12 06:31:16;;;;;;;36.10;22.90;;;;;;;-2.55;88.23;97513.55;86982;1288;99632;-77
2022/12/12 06:33:18;;;;;;;40.30;25.00;;;;;;;-2.55;88.31;97515.27;86749;1288;22520;-75
2022/12/12 06:35:20;;;;;;;40.70;24.80;;;;;;;-2.54;88.30;97516.96;86774;1287;22543;-75
2022/12/12 06:37:22;;;;;;;33.10;20.80;;;;;;;-2.54;88.27;97514.22;86612;1304;98102;-76
2022/12/12 06:39:24;;;;;;;36.40;22.30;;;;;;;-2.57;88.29;97514.45;86780;1286;22476;-75
2022/12/12 06:41:28;;;;;;;40.20;23.00;;;;;;;-2.55;88.19;97516.97;86619;1288;22722;-75
2022/12/12 06:43:30;;;;;;;43.90;24.10;;;;;;;-2.53;88.32;97519.00;86713;1288;98705;-75
2022/12/12 06:45:34;;;;;;;43.30;23.90;;;;;;;-2.53;88.23;97521.23;86837;1295;22512;-75
2022/12/12 06:47:36;;;;;;;37.80;23.20;;;;;;;-2.51;88.34;97523.27;86878;1284;22502;-75
2022/12/12 06:49:38;;;;;;;40.10;22.80;;;;;;;-2.50;88.50;97526.02;86692;1286;99179;-76
2022/12/12 06:51:43;;;;;;;42.50;22.60;;;;;;;-2.52;88.28;97522.42;86861;1288;25547;-76
2022/12/12 06:53:46;;;;;;;48.50;26.00;;;;;;;-2.50;88.25;97526.35;86733;1294;25564;-77
2022/12/12 06:55:48;;;;;;;39.10;24.70;;;;;;;-2.50;88.45;97526.85;86791;1285;99795;-76
2022/12/12 06:57:49;;;;;;;37.20;24.40;;;;;;;-2.50;88.25;97526.52;86706;1298;22512;-76
2022/12/12 06:59:51;;;;;;;39.10;23.80;;;;;;;-2.49;88.32;97525.80;86797;1287;22473;-77
2022/12/12 07:01:55;;;;;;;41.40;23.60;;;;;;;-2.50;88.33;97524.94;86697;1290;100252;-76
2022/12/12 07:03:57;;;;;;;35.90;21.20;;;;;;;-2.49;88.34;97526.31;86763;1287;23858;-78
2022/12/12 07:06:00;;;;;;;38.50;24.40;;;;;;;-2.48;88.31;97526.80;86662;1290;22570;-76
2022/12/12 07:08:03;;;;;;;49.30;26.60;;;;;;;-2.46;88.36;97530.92;86705;1283;99525;-76
2022/12/12 07:10:06;;;;;;;46.90;25.90;;;;;;;-2.46;88.42;97529.69;86942;1287;22550;-76
2022/12/12 07:12:08;;;;;;;52.00;26.30;;;;;;;-2.44;88.40;97532.94;86985;1289;26446;-75
2022/12/12 07:14:10;;;;;;;37.40;23.90;;;;;;;-2.44;88.22;97532.92;86732;1285;99215;-75
2022/12/12 07:16:12;;;;;;;39.90;23.80;;;;;;;-2.44;88.22;97534.13;86768;1294;24373;-76
2022/12/12 07:18:17;;;;;;;42.50;24.00;;;;;;;-2.44;88.28;97538.44;86653;1291;23586;-75
2022/12/12 07:20:19;;;;;;;45.30;25.20;;;;;;;-2.44;88.35;97536.72;86892;1294;99071;-77
2022/12/12 07:22:21;;;;;;;40.20;22.80;;;;;;;-2.43;88.34;97539.96;87051;1288;23866;-76
2022/12/12 07:24:23;;;;;;;42.70;25.10;;;;;;;-2.42;88.37;97536.85;87078;1294;22598;-75
2022/12/12 07:26:26;;;;;;;46.30;26.80;;;;;;;-2.42;88.34;97535.98;86805;1280;99105;-76
2022/12/12 07:28:31;;;;;;;43.50;23.90;;;;;;;-2.41;88.36;97537.67;87024;1288;22519;-76
2022/12/12 07:30:33;;;;;;;42.30;26.30;;;;;;;-2.40;88.25;97534.55;86763;1286;100132;-76
2022/12/12 07:32:35;;;;;;;40.40;22.80;;;;;;;-2.39;88.38;97537.30;86988;1295;23084;-76
2022/12/12 07:34:36;;;;;;;39.50;24.00;;;;;;;-2.39;88.31;97536.45;87087;1285;25383;-75
2022/12/12 07:36:38;;;;;;;38.70;23.30;;;;;;;-2.49;88.33;97525.64;86878;1304;99893;-76
2022/12/12 07:38:41;;;;;;;42.90;25.80;;;;;;;-2.39;88.34;97538.67;86982;1289;22837;-77
2022/12/12 07:40:42;;;;;;;52.10;26.70;;;;;;;-2.39;88.38;97537.82;87095;1295;24254;-76
2022/12/12 07:42:44;;;;;;;45.40;26.30;;;;;;;-2.39;88.34;97537.83;87090;1288;98495;-76
2022/12/12 07:44:46;;;;;;;46.50;24.30;;;;;;;-2.39;88.21;97539.02;87479;1294;22664;-76
2022/12/12 07:46:47;;;;;;;57.60;31.10;;;;;;;-2.38;88.37;97537.30;87780;1294;22649;-75
2022/12/12 07:48:51;;;;;;;52.50;30.20;;;;;;;-2.37;88.44;97538.30;87053;1291;99396;-75
2022/12/12 07:50:53;;;;;;;47.20;27.20;;;;;;;-2.37;88.39;97538.64;87186;1288;23048;-76
2022/12/12 07:52:55;;;;;;;52.20;27.40;;;;;;;-2.36;88.35;97537.08;86767;1288;22519;-75
2022/12/12 07:54:56;;;;;;;58.40;28.20;;;;;;;-2.34;88.34;97538.42;86872;1284;99429;-76
2022/12/12 07:56:59;;;;;;;58.90;30.70;;;;;;;-2.33;88.46;97540.80;87029;1284;25380;-75
2022/12/12 07:59:01;;;;;;;57.10;29.40;;;;;;;-2.32;88.36;97537.85;86765;1288;22445;-74
2022/12/12 08:01:18;;;;;;;55.40;30.30;;;;;;;-2.30;88.43;97539.20;86888;1288;100511;-75
2022/12/12 08:03:20;;;;;;;58.40;30.70;;;;;;;-2.29;88.37;97535.90;86802;1293;22686;-76
2022/12/12 08:05:22;;;;;;;60.90;31.20;;;;;;;-2.30;88.49;97537.81;86764;1287;22515;-75
2022/12/12 08:07:24;;;;;;;54.90;31.50;;;;;;;-2.29;88.37;97540.05;86935;1288;99191;-76
2022/12/12 08:09:26;;;;;;;65.60;32.50;;;;;;;-2.28;88.44;97543.64;86953;1288;24065;-74
2022/12/12 08:11:27;;;;;;;49.00;28.70;;;;;;;-2.28;88.35;97542.26;86659;1296;22562;-75
2022/12/12 08:13:30;;;;;;;68.10;35.10;;;;;;;-2.26;88.32;97542.39;86716;1284;99231;-75
2022/12/12 08:15:33;;;;;;;60.90;30.70;;;;;;;-2.25;88.42;97544.09;87048;1289;22545;-74
2022/12/12 08:17:34;;;;;;;55.80;30.30;;;;;;;-2.26;88.34;97542.73;87027;1294;22507;-76
2022/12/12 08:19:36;;;;;;;51.40;29.60;;;;;;;-2.25;88.39;97548.21;86631;1289;98496;-76
2022/12/12 08:21:38;;;;;;;58.40;32.30;;;;;;;-2.25;88.40;97549.40;86957;1284;24105;-76
2022/12/12 08:23:40;;;;;;;56.10;31.20;;;;;;;-2.24;88.36;97551.96;86870;1287;23315;-77
2022/12/12 08:25:42;;;;;;;51.30;30.80;;;;;;;-2.23;88.45;97551.77;86946;1291;99089;-75
2022/12/12 08:27:44;;;;;;;50.20;29.00;;;;;;;-2.21;88.47;97551.92;86878;1294;25226;-76
2022/12/12 08:29:53;;;;;;;51.00;28.00;;;;;;;-2.20;88.40;97554.84;86671;1280;23341;-76
2022/12/12 08:31:56;;;;;;;49.00;28.20;;;;;;;-2.20;88.38;97555.19;86939;1286;98668;-76
2022/12/12 08:33:59;;;;;;;50.90;28.80;;;;;;;-2.20;88.38;97555.86;87028;1291;22772;-75
2022/12/12 08:36:14;;;;;;;54.80;30.50;;;;;;;-2.19;88.37;97556.20;86632;1291;22655;-78
2022/12/12 08:38:15;;;;;;;54.40;29.60;;;;;;;-2.18;88.42;97554.80;86636;1288;98250;-76
2022/12/12 08:40:17;;;;;;;51.50;29.40;;;;;;;-2.16;88.47;97554.41;86795;1288;23589;-76
2022/12/12 08:42:19;;;;;;;60.60;30.40;;;;;;;-2.15;88.47;97554.58;86830;1284;22554;-76
2022/12/12 08:44:21;;;;;;;60.20;31.50;;;;;;;-2.14;88.43;97557.98;86497;1287;98091;-77
2022/12/12 08:46:23;;;;;;;49.30;28.90;;;;;;;-2.13;88.49;97561.05;86647;1288;24244;-76
2022/12/12 08:48:25;;;;;;;48.40;29.90;;;;;;;-2.12;88.43;97559.83;86656;1295;24350;-75
2022/12/12 08:50:28;;;;;;;50.70;29.50;;;;;;;-2.12;88.33;97558.96;86555;1290;99282;-76
2022/12/12 08:52:32;;;;;;;55.90;29.70;;;;;;;-2.10;88.49;97562.71;86553;1295;22495;-75
2022/12/12 08:54:36;;;;;;;46.50;27.90;;;;;;;-2.11;88.55;97562.56;86631;1289;22491;-76
2022/12/12 08:56:39;;;;;;;51.20;28.70;;;;;;;-2.10;88.48;97561.33;86612;1288;100325;-75
2022/12/12 08:58:41;;;;;;;51.10;27.70;;;;;;;-2.12;88.46;97556.04;86719;1312;22471;-75
2022/12/12 09:00:42;;;;;;;49.10;28.20;;;;;;;-2.10;88.44;97560.31;86719;1295;98571;-77
2022/12/12 09:02:45;;;;;;;50.00;29.00;;;;;;;-2.11;88.53;97560.31;86682;1286;22509;-76
2022/12/12 09:04:47;;;;;;;59.00;30.60;;;;;;;-2.08;88.52;97562.67;86693;1294;22468;-76
2022/12/12 09:06:49;;;;;;;51.20;27.70;;;;;;;-2.08;88.56;97562.85;86728;1296;99834;-77
2022/12/12 09:08:51;;;;;;;54.70;31.40;;;;;;;-2.07;88.49;97560.41;86831;1295;22462;-77
2022/12/12 09:10:55;;;;;;;50.70;30.10;;;;;;;-2.06;88.50;97559.52;86639;1312;26457;-76
2022/12/12 09:12:57;;;;;;;64.10;31.30;;;;;;;-2.05;88.48;97560.73;86572;1284;237162;-76
2022/12/12 09:14:59;;;;;;;51.70;29.90;;;;;;;-2.04;88.50;97559.83;86664;1294;22631;-77
2022/12/12 09:17:00;;;;;;;50.10;28.10;;;;;;;-2.04;88.51;97561.21;86686;1313;24296;-76
2022/12/12 09:19:03;;;;;;;62.70;32.80;;;;;;;-2.03;88.49;97558.77;86902;1290;98005;-75
2022/12/12 09:21:07;;;;;;;49.80;27.60;;;;;;;-2.01;88.58;97562.52;86629;1294;25713;-76
2022/12/12 09:23:10;;;;;;;58.40;28.80;;;;;;;-2.01;88.52;97560.98;86807;1312;22892;-75
2022/12/12 09:25:11;;;;;;;64.00;31.90;;;;;;;-2.03;88.41;97559.80;86482;1291;99774;-75
2022/12/12 09:27:13;;;;;;;54.60;30.20;;;;;;;-1.98;88.55;97561.09;86633;1286;25287;-76
2022/12/12 09:29:16;;;;;;;50.70;27.40;;;;;;;-1.97;88.59;97561.42;86663;1288;22478;-76
2022/12/12 09:31:18;;;;;;;60.80;31.90;;;;;;;-1.94;88.48;97562.03;86814;1293;99389;-75
2022/12/12 09:33:20;;;;;;;54.80;29.60;;;;;;;-1.93;88.61;97558.21;86934;1292;22528;-74
2022/12/12 09:35:22;;;;;;;55.10;31.40;;;;;;;-1.91;88.61;97563.36;86860;1295;22564;-75
2022/12/12 09:37:23;;;;;;;50.60;29.90;;;;;;;-1.90;88.60;97566.77;86591;1313;99761;-74
2022/12/12 09:39:27;;;;;;;58.00;30.30;;;;;;;-1.88;88.63;97565.70;86720;1307;22908;-76
2022/12/12 09:41:30;;;;;;;55.50;30.10;;;;;;;-1.87;88.46;97565.67;86819;1284;22580;-74
2022/12/12 09:43:36;;;;;;;54.40;30.30;;;;;;;-1.88;88.53;97561.56;86725;1312;98500;-75
2022/12/12 09:45:39;;;;;;;52.50;27.60;;;;;;;-1.87;88.51;97560.70;86796;1306;22485;-75
2022/12/12 09:47:45;;;;;;;56.10;30.40;;;;;;;-1.86;88.56;97560.50;86953;1286;24240;-75
2022/12/12 09:49:53;;;;;;;53.10;31.20;;;;;;;-1.86;88.48;97559.29;86649;1294;99399;-76
2022/12/12 09:51:56;;;;;;;51.50;29.10;;;;;;;-1.86;88.60;97559.98;86675;1287;26126;-74
2022/12/12 09:54:01;;;;;;;55.90;30.10;;;;;;;-1.86;88.45;97564.46;86778;1294;22493;-75
2022/12/12 09:56:23;;;;;;;53.50;30.60;;;;;;;-1.84;88.54;97562.88;86661;1287;98241;-75
2022/12/12 09:58:27;;;;;;;;;;;;;;;-1.84;88.36;97559.60;86955;1284;22535;-74